DLH3XA EDDF-ELLX
Flight info
| Callsign | DLH3XA |
|---|---|
| Flight time | 0h 25m |
| Altitude | 16000 |
| Route | SOBRA2L/18 SOBRA Y180 BITBU Z110 BETEX |
| Aircraft | CRJ9/M-SDE2E3FGIJ1LORWXY/HB1 |
Departure
| Time | 2026-04-15 13:06 |
|---|---|
| Airport | Frankfurt Main Airport (EDDF) |
Arrival
| Time | 2026-04-15 13:31 |
|---|---|
| Airport | Luxembourg-Findel International Airport (ELLX) |
| Time | Latitude | Longitude | Altitude | Speed | Heading |
|---|---|---|---|---|---|
| 2026-04-15 12:33 | 50.03731 | 8.54225 | 350 ft | 0 kts | 160° |
| 2026-04-15 13:01 | 50.03726 | 8.54227 | 342 ft | 3 kts | 159° |
| 2026-04-15 13:01 | 50.03695 | 8.54245 | 338 ft | 7 kts | 159° |
| 2026-04-15 13:01 | 50.03646 | 8.54244 | 338 ft | 7 kts | 221° |
| 2026-04-15 13:02 | 50.03621 | 8.54162 | 338 ft | 10 kts | 250° |
| 2026-04-15 13:02 | 50.03594 | 8.54051 | 337 ft | 12 kts | 249° |
| 2026-04-15 13:02 | 50.03560 | 8.53910 | 337 ft | 15 kts | 250° |
| 2026-04-15 13:02 | 50.03521 | 8.53743 | 337 ft | 18 kts | 249° |
| 2026-04-15 13:03 | 50.03476 | 8.53554 | 335 ft | 19 kts | 249° |
| 2026-04-15 13:03 | 50.03428 | 8.53356 | 333 ft | 20 kts | 249° |
| 2026-04-15 13:03 | 50.03379 | 8.53151 | 332 ft | 21 kts | 250° |
| 2026-04-15 13:03 | 50.03328 | 8.52938 | 330 ft | 21 kts | 250° |
| 2026-04-15 13:04 | 50.03277 | 8.52717 | 331 ft | 22 kts | 250° |
| 2026-04-15 13:04 | 50.03237 | 8.52552 | 333 ft | 0 kts | 234° |
| 2026-04-15 13:04 | 50.03234 | 8.52550 | 333 ft | 2 kts | 205° |
| 2026-04-15 13:04 | 50.03205 | 8.52550 | 334 ft | 8 kts | 169° |
| 2026-04-15 13:05 | 50.02998 | 8.52592 | 329 ft | 59 kts | 175° |
| 2026-04-15 13:05 | 50.02390 | 8.52604 | 333 ft | 114 kts | 180° |
| 2026-04-15 13:05 | 50.01438 | 8.52618 | 331 ft | 157 kts | 179° |
| 2026-04-15 13:05 | 50.00267 | 8.52669 | 642 ft | 169 kts | 178° |
| 2026-04-15 13:06 | 49.99345 | 8.52693 | 1197 ft | 164 kts | 179° |
| 2026-04-15 13:06 | 49.98204 | 8.52722 | 1826 ft | 165 kts | 176° |
| 2026-04-15 13:06 | 49.96975 | 8.52821 | 2157 ft | 190 kts | 175° |
| 2026-04-15 13:06 | 49.95577 | 8.52956 | 2531 ft | 214 kts | 175° |
| 2026-04-15 13:07 | 49.94036 | 8.53091 | 3224 ft | 228 kts | 175° |
| 2026-04-15 13:07 | 49.92369 | 8.53215 | 3689 ft | 254 kts | 176° |
| 2026-04-15 13:07 | 49.90475 | 8.53352 | 3886 ft | 289 kts | 177° |
| 2026-04-15 13:07 | 49.88449 | 8.53479 | 4910 ft | 287 kts | 177° |
| 2026-04-15 13:08 | 49.86534 | 8.53154 | 6324 ft | 271 kts | 195° |
| 2026-04-15 13:08 | 49.84765 | 8.52262 | 7437 ft | 268 kts | 200° |
| 2026-04-15 13:08 | 49.83007 | 8.51221 | 8269 ft | 272 kts | 201° |
| 2026-04-15 13:08 | 49.81226 | 8.50146 | 9120 ft | 277 kts | 201° |
| 2026-04-15 13:09 | 49.79418 | 8.49059 | 9981 ft | 281 kts | 202° |
| 2026-04-15 13:09 | 49.77620 | 8.47784 | 10574 ft | 293 kts | 216° |
| 2026-04-15 13:09 | 49.76301 | 8.45289 | 10881 ft | 314 kts | 247° |
| 2026-04-15 13:09 | 49.75933 | 8.41898 | 11327 ft | 330 kts | 271° |
| 2026-04-15 13:10 | 49.76246 | 8.38344 | 12000 ft | 337 kts | 282° |
| 2026-04-15 13:10 | 49.76837 | 8.34809 | 12809 ft | 341 kts | 285° |
| 2026-04-15 13:10 | 49.77497 | 8.31271 | 13611 ft | 344 kts | 285° |
| 2026-04-15 13:10 | 49.78163 | 8.27696 | 14349 ft | 348 kts | 285° |
| 2026-04-15 13:11 | 49.78795 | 8.24056 | 15034 ft | 352 kts | 284° |
| 2026-04-15 13:11 | 49.79391 | 8.20358 | 15653 ft | 358 kts | 283° |
| 2026-04-15 13:11 | 49.79985 | 8.16545 | 15974 ft | 371 kts | 283° |
| 2026-04-15 13:11 | 49.80608 | 8.12635 | 16119 ft | 376 kts | 283° |
| 2026-04-15 13:12 | 49.81227 | 8.08736 | 16177 ft | 381 kts | 283° |
| 2026-04-15 13:12 | 49.81866 | 8.04734 | 16205 ft | 386 kts | 283° |
| 2026-04-15 13:12 | 49.82524 | 8.00611 | 16217 ft | 390 kts | 283° |
| 2026-04-15 13:12 | 49.83041 | 7.97268 | 16225 ft | 390 kts | 283° |
| 2026-04-15 13:13 | 49.83679 | 7.93181 | 16219 ft | 390 kts | 283° |
| 2026-04-15 13:13 | 49.84321 | 7.89099 | 16216 ft | 388 kts | 283° |
| 2026-04-15 13:13 | 49.84952 | 7.85069 | 16212 ft | 381 kts | 283° |
| 2026-04-15 13:13 | 49.85573 | 7.81112 | 16208 ft | 375 kts | 283° |
| 2026-04-15 13:14 | 49.86191 | 7.77205 | 16204 ft | 371 kts | 283° |
| 2026-04-15 13:14 | 49.86798 | 7.73330 | 16201 ft | 368 kts | 283° |
| 2026-04-15 13:14 | 49.87396 | 7.69495 | 16205 ft | 365 kts | 282° |
| 2026-04-15 13:14 | 49.87984 | 7.65685 | 16206 ft | 362 kts | 282° |
| 2026-04-15 13:15 | 49.88571 | 7.61895 | 16199 ft | 363 kts | 282° |
| 2026-04-15 13:15 | 49.89162 | 7.58063 | 16205 ft | 368 kts | 282° |
| 2026-04-15 13:15 | 49.89759 | 7.54182 | 16211 ft | 372 kts | 282° |
| 2026-04-15 13:15 | 49.90361 | 7.50264 | 16214 ft | 376 kts | 282° |
| 2026-04-15 13:16 | 49.90970 | 7.46306 | 16219 ft | 379 kts | 282° |
| 2026-04-15 13:16 | 49.91583 | 7.42309 | 16213 ft | 382 kts | 282° |
| 2026-04-15 13:16 | 49.92197 | 7.38291 | 16224 ft | 384 kts | 282° |
| 2026-04-15 13:16 | 49.92811 | 7.34257 | 16218 ft | 385 kts | 282° |
| 2026-04-15 13:17 | 49.93423 | 7.30212 | 16218 ft | 386 kts | 282° |
| 2026-04-15 13:17 | 49.94037 | 7.26145 | 16215 ft | 387 kts | 282° |
| 2026-04-15 13:17 | 49.94650 | 7.22071 | 16218 ft | 388 kts | 282° |
| 2026-04-15 13:17 | 49.95269 | 7.17991 | 16214 ft | 389 kts | 282° |
| 2026-04-15 13:18 | 49.95886 | 7.13899 | 16217 ft | 390 kts | 282° |
| 2026-04-15 13:18 | 49.96497 | 7.09802 | 16214 ft | 390 kts | 282° |
| 2026-04-15 13:18 | 49.97112 | 7.05696 | 16209 ft | 390 kts | 282° |
| 2026-04-15 13:18 | 49.97725 | 7.01592 | 16203 ft | 390 kts | 282° |
| 2026-04-15 13:19 | 49.98212 | 6.98294 | 16199 ft | 389 kts | 282° |
| 2026-04-15 13:19 | 49.98810 | 6.94263 | 16190 ft | 387 kts | 282° |
| 2026-04-15 13:19 | 49.99338 | 6.90131 | 16179 ft | 383 kts | 275° |
| 2026-04-15 13:19 | 49.99371 | 6.86018 | 16186 ft | 380 kts | 265° |
| 2026-04-15 13:20 | 49.98775 | 6.82113 | 16184 ft | 377 kts | 248° |
| 2026-04-15 13:20 | 49.97649 | 6.78479 | 16042 ft | 372 kts | 240° |
| 2026-04-15 13:20 | 49.96235 | 6.75118 | 15485 ft | 371 kts | 234° |
| 2026-04-15 13:20 | 49.94681 | 6.71963 | 14882 ft | 364 kts | 232° |
| 2026-04-15 13:21 | 49.93129 | 6.68892 | 14284 ft | 359 kts | 232° |
| 2026-04-15 13:21 | 49.91608 | 6.65854 | 13633 ft | 354 kts | 233° |
| 2026-04-15 13:21 | 49.90150 | 6.62815 | 13008 ft | 349 kts | 234° |
| 2026-04-15 13:21 | 49.88924 | 6.59605 | 12355 ft | 346 kts | 251° |
| 2026-04-15 13:22 | 49.88701 | 6.55908 | 11670 ft | 348 kts | 277° |
| 2026-04-15 13:22 | 49.89392 | 6.52337 | 11030 ft | 346 kts | 289° |
| 2026-04-15 13:22 | 49.90274 | 6.48893 | 10604 ft | 336 kts | 291° |
| 2026-04-15 13:22 | 49.91156 | 6.45660 | 10371 ft | 317 kts | 292° |
| 2026-04-15 13:23 | 49.92020 | 6.42605 | 9965 ft | 302 kts | 292° |
| 2026-04-15 13:23 | 49.92860 | 6.39687 | 9525 ft | 290 kts | 293° |
| 2026-04-15 13:23 | 49.93680 | 6.36879 | 9047 ft | 282 kts | 291° |
| 2026-04-15 13:23 | 49.94143 | 6.33991 | 8428 ft | 275 kts | 265° |
| 2026-04-15 13:24 | 49.93545 | 6.31259 | 7792 ft | 269 kts | 232° |
| 2026-04-15 13:24 | 49.92082 | 6.29551 | 7211 ft | 265 kts | 199° |
| 2026-04-15 13:24 | 49.90262 | 6.29389 | 6602 ft | 266 kts | 168° |
| 2026-04-15 13:24 | 49.88481 | 6.30108 | 6245 ft | 263 kts | 165° |
| 2026-04-15 13:25 | 49.86731 | 6.30915 | 5800 ft | 262 kts | 164° |
| 2026-04-15 13:25 | 49.85000 | 6.31762 | 5462 ft | 258 kts | 162° |
| 2026-04-15 13:25 | 49.83327 | 6.32587 | 5252 ft | 249 kts | 162° |
| 2026-04-15 13:25 | 49.81683 | 6.33403 | 4887 ft | 248 kts | 162° |
| 2026-04-15 13:26 | 49.80034 | 6.34218 | 4576 ft | 248 kts | 162° |
| 2026-04-15 13:26 | 49.78386 | 6.35019 | 4260 ft | 248 kts | 162° |
| 2026-04-15 13:26 | 49.76746 | 6.35818 | 3958 ft | 245 kts | 162° |
| 2026-04-15 13:26 | 49.75133 | 6.36600 | 3643 ft | 241 kts | 162° |
| 2026-04-15 13:27 | 49.73545 | 6.37363 | 3327 ft | 235 kts | 162° |
| 2026-04-15 13:27 | 49.72029 | 6.38093 | 3119 ft | 223 kts | 162° |
| 2026-04-15 13:27 | 49.70623 | 6.38757 | 3118 ft | 199 kts | 163° |
| 2026-04-15 13:27 | 49.69332 | 6.39111 | 3038 ft | 182 kts | 186° |
| 2026-04-15 13:28 | 49.68288 | 6.38212 | 2965 ft | 173 kts | 230° |
| 2026-04-15 13:28 | 49.67758 | 6.36604 | 2955 ft | 166 kts | 243° |
| 2026-04-15 13:28 | 49.67292 | 6.34983 | 2966 ft | 166 kts | 244° |
| 2026-04-15 13:28 | 49.66820 | 6.33301 | 2697 ft | 173 kts | 244° |
| 2026-04-15 13:29 | 49.66362 | 6.31649 | 2444 ft | 159 kts | 244° |
| 2026-04-15 13:29 | 49.65950 | 6.30228 | 2245 ft | 133 kts | 240° |
| 2026-04-15 13:29 | 49.65552 | 6.28993 | 2076 ft | 124 kts | 237° |
| 2026-04-15 13:29 | 49.65141 | 6.27847 | 1905 ft | 122 kts | 236° |
| 2026-04-15 13:30 | 49.64706 | 6.26705 | 1771 ft | 125 kts | 234° |
| 2026-04-15 13:30 | 49.64255 | 6.25538 | 1601 ft | 126 kts | 236° |
| 2026-04-15 13:30 | 49.63818 | 6.24360 | 1384 ft | 132 kts | 238° |
| 2026-04-15 13:30 | 49.63381 | 6.23134 | 1220 ft | 130 kts | 237° |
| 2026-04-15 13:31 | 49.62994 | 6.22100 | 1212 ft | 87 kts | 240° |
| 2026-04-15 13:31 | 49.62757 | 6.21461 | 1222 ft | 59 kts | 240° |
| 2026-04-15 13:31 | 49.62667 | 6.21166 | 1232 ft | 10 kts | 284° |
| 2026-04-15 13:31 | 49.62684 | 6.21137 | 1232 ft | 3 kts | 335° |
| 2026-04-15 13:32 | 49.62692 | 6.21138 | 1232 ft | 3 kts | 26° |
| 2026-04-15 13:32 | 49.62736 | 6.21176 | 1230 ft | 11 kts | 29° |
| 2026-04-15 13:32 | 49.62822 | 6.21254 | 1227 ft | 17 kts | 31° |
| 2026-04-15 13:32 | 49.62906 | 6.21328 | 1227 ft | 11 kts | 25° |
| 2026-04-15 13:33 | 49.62969 | 6.21344 | 1227 ft | 9 kts | 8° |
| 2026-04-15 13:33 | 49.63000 | 6.21390 | 1226 ft | 6 kts | 57° |
| 2026-04-15 13:33 | 49.63018 | 6.21453 | 1226 ft | 7 kts | 71° |
| 2026-04-15 13:33 | 49.63041 | 6.21532 | 1224 ft | 9 kts | 65° |
| 2026-04-15 13:34 | 49.63072 | 6.21627 | 1224 ft | 9 kts | 41° |
| 2026-04-15 13:34 | 49.63111 | 6.21632 | 1227 ft | 2 kts | 343° |
| 2026-04-15 13:34 | 49.63115 | 6.21630 | 1227 ft | 1 kts | 340° |
| 2026-04-15 13:34 | 49.63136 | 6.21613 | 1228 ft | 6 kts | 326° |
| 2026-04-15 13:35 | 49.63142 | 6.21591 | 1228 ft | 5 kts | 269° |
| 2026-04-15 13:35 | 49.63124 | 6.21538 | 1228 ft | 6 kts | 239° |
| 2026-04-15 13:35 | 49.63123 | 6.21535 | 1228 ft | 0 kts | 239° |